Glassville, Canada
Current Conditions -  °F | °C
As of 3:53 PM on Saturday 25 Oct 2014 (Local Time) from KHUL Reporting Station
Overcast Overcast  
Wind Chill:   Ceiling: 1300
Heat Index:   Visibility: 10mi
Dew Point:   Wind: 5mph
Humidity: 82%   Direction: 300°WNW
Pressure: 29.57"   Gusts: NA
Location:  46.48°N, 67.42°W
Report Text: KHUL 251853Z AUTO 30004KT 10SM BKN013 OVC021 07/04 A2957 RMK AO2 SLP016 T00720044
Loading
Personal Weather Stations






























Interactive Weather Map
Tropical Storm Tracking
New forecast layout! Learn more

10-Day Weather Forecast

Advertisements
Track Severe Weather on mobile